createdAt,value
2018-09-02T00:01:28.745Z,13.07
2018-09-02T00:04:03.483Z,13.06
2018-09-02T00:06:38.358Z,13.05
2018-09-02T00:09:13.608Z,13.01
2018-09-02T00:11:48.598Z,13.01
2018-09-02T00:14:23.254Z,13.00
2018-09-02T00:16:58.343Z,13.06
2018-09-02T00:19:33.179Z,13.07
2018-09-02T00:22:08.184Z,13.11
2018-09-02T00:24:42.595Z,13.08
2018-09-02T00:27:17.133Z,13.05
2018-09-02T00:29:51.595Z,13.06
2018-09-02T00:32:26.015Z,13.00
2018-09-02T00:35:00.832Z,12.95
2018-09-02T00:37:35.824Z,13.02
2018-09-02T00:40:10.372Z,12.92
2018-09-02T00:42:45.741Z,12.90
2018-09-02T00:45:20.911Z,12.96
2018-09-02T00:47:55.577Z,13.02
2018-09-02T00:50:30.185Z,12.99
2018-09-02T00:53:05.056Z,13.02
2018-09-02T00:55:40.181Z,13.02
2018-09-02T00:58:15.007Z,13.00
2018-09-02T01:00:49.647Z,13.05
2018-09-02T01:03:23.973Z,13.08
2018-09-02T01:05:58.451Z,13.09
2018-09-02T01:08:33.611Z,13.09
2018-09-02T01:11:08.274Z,13.13
2018-09-02T01:13:42.816Z,13.11
2018-09-02T01:16:17.913Z,13.09
2018-09-02T01:18:52.197Z,13.13
2018-09-02T01:21:27.287Z,13.13
2018-09-02T01:24:02.196Z,13.06
2018-09-02T01:26:36.727Z,13.06
2018-09-02T01:29:11.215Z,13.04
2018-09-02T01:31:46.196Z,13.06
2018-09-02T01:34:21.953Z,13.07
2018-09-02T01:36:56.422Z,13.09
2018-09-02T01:39:31.238Z,13.09
2018-09-02T01:42:06.079Z,13.08
2018-09-02T01:44:40.475Z,13.10
2018-09-02T01:47:15.139Z,13.09
2018-09-02T01:49:49.548Z,13.03
2018-09-02T01:52:24.184Z,13.02
2018-09-02T01:54:58.947Z,13.03
2018-09-02T01:57:33.359Z,13.05
2018-09-02T02:00:08.227Z,13.02
2018-09-02T02:02:42.791Z,13.06
2018-09-02T02:05:17.623Z,13.01
2018-09-02T02:07:52.334Z,12.95
2018-09-02T02:10:26.959Z,12.96
2018-09-02T02:13:01.441Z,12.96
2018-09-02T02:15:36.171Z,12.97
2018-09-02T02:18:10.653Z,12.92
2018-09-02T02:20:45.363Z,12.93
2018-09-02T02:23:20.152Z,12.90
2018-09-02T02:25:55.324Z,12.89
2018-09-02T02:28:29.712Z,12.90
2018-09-02T02:31:04.754Z,12.99
2018-09-02T02:33:39.149Z,13.01
2018-09-02T02:36:13.522Z,13.02
2018-09-02T02:38:48.078Z,13.04
2018-09-02T02:41:23.077Z,13.06
2018-09-02T02:43:57.843Z,13.03
2018-09-02T02:46:32.328Z,13.04
2018-09-02T02:49:07.645Z,13.06
2018-09-02T02:51:42.742Z,13.06
2018-09-02T02:54:17.631Z,13.07
2018-09-02T02:56:52.221Z,13.11
2018-09-02T02:59:27.190Z,13.05
2018-09-02T03:02:01.727Z,13.08
2018-09-02T03:04:36.347Z,13.12
2018-09-02T03:07:11.781Z,13.11
2018-09-02T03:09:46.760Z,13.13
2018-09-02T03:12:21.547Z,13.11
2018-09-02T03:14:55.888Z,13.21
2018-09-02T03:17:30.393Z,13.19
2018-09-02T03:20:05.635Z,13.13
2018-09-02T03:22:40.760Z,13.14
2018-09-02T03:25:16.147Z,13.12
2018-09-02T03:27:50.761Z,13.11
2018-09-02T03:30:25.571Z,13.14
2018-09-02T03:33:00.708Z,13.16
2018-09-02T03:35:35.424Z,13.14
2018-09-02T03:38:09.879Z,13.14
2018-09-02T03:40:45.266Z,13.14
2018-09-02T03:43:20.279Z,13.14
2018-09-02T03:45:54.788Z,13.14
2018-09-02T03:48:29.749Z,13.20
2018-09-02T03:51:04.364Z,13.19
2018-09-02T03:53:39.023Z,13.14
2018-09-02T03:56:13.957Z,13.19
2018-09-02T03:58:49.261Z,13.16
2018-09-02T04:01:24.044Z,13.13
2018-09-02T04:03:59.240Z,13.13
2018-09-02T04:06:33.859Z,13.10
2018-09-02T04:09:10.529Z,13.11
2018-09-02T04:11:45.354Z,13.14
2018-09-02T04:14:20.080Z,13.15
2018-09-02T04:16:54.886Z,13.16
2018-09-02T04:19:29.340Z,13.17
2018-09-02T04:22:04.035Z,13.14
2018-09-02T04:24:38.554Z,13.15
2018-09-02T04:27:13.306Z,13.17
2018-09-02T04:29:48.391Z,13.13
2018-09-02T04:32:22.911Z,13.14
2018-09-02T04:34:57.346Z,13.13
2018-09-02T04:37:32.059Z,13.15
2018-09-02T04:40:07.271Z,13.10
2018-09-02T04:42:42.263Z,13.10
2018-09-02T04:45:16.725Z,13.10
2018-09-02T04:47:51.520Z,13.15
2018-09-02T04:50:25.929Z,13.12
2018-09-02T04:53:00.951Z,13.12
2018-09-02T04:55:35.426Z,13.14
2018-09-02T04:58:10.304Z,13.14
2018-09-02T05:00:45.063Z,13.16
2018-09-02T05:03:20.119Z,13.16
2018-09-02T05:05:54.852Z,13.20
2018-09-02T05:08:29.654Z,13.23
2018-09-02T05:11:04.281Z,13.27
2018-09-02T05:13:39.359Z,13.31
2018-09-02T05:16:13.716Z,13.22
2018-09-02T05:18:48.338Z,13.25
2018-09-02T05:21:22.823Z,13.32
2018-09-02T05:23:57.212Z,13.36
2018-09-02T05:26:31.815Z,13.35
2018-09-02T05:29:07.111Z,13.26
2018-09-02T05:31:41.436Z,13.31
2018-09-02T05:34:16.176Z,13.32
2018-09-02T05:36:50.702Z,13.37
2018-09-02T05:39:25.991Z,13.44
2018-09-02T05:42:00.638Z,13.47
2018-09-02T05:44:35.235Z,13.52
2018-09-02T05:47:10.307Z,13.63
2018-09-02T05:49:44.748Z,13.58
2018-09-02T05:52:19.143Z,13.65
2018-09-02T05:54:54.203Z,13.70
2018-09-02T05:57:28.878Z,13.75
2018-09-02T06:00:03.611Z,13.77
2018-09-02T06:02:38.382Z,13.80
2018-09-02T06:05:14.047Z,13.85
2018-09-02T06:07:49.071Z,13.83
2018-09-02T06:10:24.107Z,13.84
2018-09-02T06:12:59.103Z,13.87
2018-09-02T06:15:34.143Z,13.92
2018-09-02T06:18:08.935Z,13.95
2018-09-02T06:20:43.416Z,13.97
2018-09-02T06:23:17.748Z,14.03
2018-09-02T06:25:52.345Z,14.11
2018-09-02T06:28:26.758Z,14.08
2018-09-02T06:31:01.475Z,14.19
2018-09-02T06:33:36.208Z,14.21
2018-09-02T06:36:11.075Z,14.23
2018-09-02T06:38:45.483Z,14.36
2018-09-02T06:41:20.571Z,14.32
2018-09-02T06:43:54.883Z,14.31
2018-09-02T06:46:29.986Z,14.28
2018-09-02T06:49:04.896Z,14.21
2018-09-02T06:51:39.375Z,14.15
2018-09-02T06:54:13.706Z,14.12
2018-09-02T06:56:48.349Z,14.04
2018-09-02T06:59:23.623Z,14.17
2018-09-02T07:01:58.218Z,14.13
2018-09-02T07:04:33.748Z,14.18
2018-09-02T07:07:08.357Z,14.25
2018-09-02T07:09:43.456Z,14.32
2018-09-02T07:12:17.718Z,14.40
2018-09-02T07:14:51.991Z,14.45
2018-09-02T07:17:27.004Z,14.40
2018-09-02T07:20:01.602Z,14.39
2018-09-02T07:22:36.627Z,14.45
2018-09-02T07:25:11.559Z,14.47
2018-09-02T07:27:46.064Z,14.58
2018-09-02T07:30:20.942Z,14.74
2018-09-02T07:32:55.451Z,14.83
2018-09-02T07:35:29.996Z,14.96
2018-09-02T07:38:05.228Z,15.07
2018-09-02T07:40:39.527Z,15.13
2018-09-02T07:43:14.167Z,15.12
2018-09-02T07:45:49.526Z,15.08
2018-09-02T07:48:24.283Z,15.22
2018-09-02T07:50:58.712Z,15.38
2018-09-02T07:53:33.427Z,15.40
2018-09-02T07:56:08.439Z,15.54
2018-09-02T07:58:43.035Z,15.60
2018-09-02T08:01:17.819Z,15.62
2018-09-02T08:03:52.687Z,15.62
2018-09-02T08:06:28.002Z,15.46
2018-09-02T08:09:06.683Z,15.45
2018-09-02T08:11:41.508Z,15.48
2018-09-02T08:14:15.999Z,15.37
2018-09-02T08:16:50.536Z,15.27
2018-09-02T08:19:25.377Z,15.25
2018-09-02T08:22:08.209Z,15.21
2018-09-02T08:24:42.867Z,15.00
2018-09-02T08:27:17.668Z,14.85
2018-09-02T08:29:52.471Z,14.91
2018-09-02T08:32:26.829Z,14.91
2018-09-02T08:35:01.504Z,15.00
2018-09-02T08:37:36.295Z,15.01
2018-09-02T08:40:12.348Z,15.02
2018-09-02T08:42:47.123Z,15.00
2018-09-02T08:45:22.189Z,15.07
2018-09-02T08:47:57.219Z,15.19
2018-09-02T08:50:31.688Z,15.41
2018-09-02T08:53:06.586Z,15.59
2018-09-02T08:55:41.419Z,15.69
2018-09-02T08:58:16.299Z,15.74
2018-09-02T09:00:50.632Z,15.84
2018-09-02T09:03:25.463Z,15.94
2018-09-02T09:05:59.743Z,15.91
2018-09-02T09:08:35.295Z,15.83
2018-09-02T09:11:10.341Z,15.83
2018-09-02T09:13:45.627Z,15.83
2018-09-02T09:16:20.396Z,15.84
2018-09-02T09:18:56.316Z,15.91
2018-09-02T09:21:31.341Z,15.88
2018-09-02T09:24:06.429Z,16.02
2018-09-02T09:26:40.896Z,16.24
2018-09-02T09:29:15.400Z,16.48
2018-09-02T09:31:50.039Z,16.64
2018-09-02T09:34:24.656Z,16.78
2018-09-02T09:36:59.276Z,16.75
2018-09-02T09:39:34.579Z,16.83
2018-09-02T09:42:09.531Z,16.92
2018-09-02T09:44:44.200Z,17.05
2018-09-02T09:47:18.551Z,17.22
2018-09-02T09:49:53.209Z,17.46
2018-09-02T09:52:27.915Z,17.57
2018-09-02T09:57:40.194Z,17.59
2018-09-02T10:00:20.692Z,17.51
2018-09-02T10:02:55.372Z,17.47
2018-09-02T10:05:30.155Z,17.44
2018-09-02T10:08:04.824Z,17.49
2018-09-02T10:10:39.272Z,17.48
2018-09-02T10:13:13.651Z,17.55
2018-09-02T10:15:48.022Z,17.72
2018-09-02T10:18:22.715Z,17.71
2018-09-02T10:20:57.839Z,17.87
2018-09-02T10:23:32.476Z,18.11
2018-09-02T10:26:07.751Z,18.28
2018-09-02T10:28:42.424Z,18.47
2018-09-02T10:31:17.135Z,18.55
2018-09-02T10:33:51.819Z,18.48
2018-09-02T10:36:26.643Z,18.44
2018-09-02T10:39:03.282Z,18.43
2018-09-02T10:41:37.940Z,18.26
2018-09-02T10:44:12.518Z,18.29
2018-09-02T10:46:47.231Z,18.29
2018-09-02T10:49:22.487Z,18.27
2018-09-02T10:51:57.292Z,18.22
2018-09-02T10:54:32.382Z,18.26
2018-09-02T10:57:06.966Z,18.17
2018-09-02T10:59:41.377Z,18.16
2018-09-02T11:02:16.160Z,18.09
2018-09-02T11:04:50.572Z,18.07
2018-09-02T11:07:25.295Z,18.07
2018-09-02T11:10:00.035Z,17.99
2018-09-02T11:12:34.461Z,17.94
2018-09-02T11:15:09.458Z,17.85
2018-09-02T11:17:44.532Z,17.95
2018-09-02T11:20:19.068Z,18.09
2018-09-02T11:22:53.835Z,18.27
2018-09-02T11:25:29.480Z,18.56
2018-09-02T11:28:04.322Z,18.78
2018-09-02T11:30:39.011Z,18.91
2018-09-02T11:33:13.375Z,18.85
2018-09-02T11:35:48.054Z,19.04
2018-09-02T11:38:22.767Z,19.33
2018-09-02T11:40:57.696Z,19.37
2018-09-02T11:43:35.396Z,19.88
2018-09-02T11:46:09.980Z,20.05
2018-09-02T11:48:44.954Z,20.09
2018-09-02T11:51:19.903Z,20.04
2018-09-02T11:53:54.431Z,19.73
2018-09-02T11:56:28.924Z,19.45
2018-09-02T11:59:04.487Z,19.22
2018-09-02T12:01:40.319Z,19.06
2018-09-02T12:04:14.871Z,18.84
2018-09-02T12:06:49.924Z,18.74
2018-09-02T12:09:24.891Z,18.71
2018-09-02T12:11:59.425Z,18.65
2018-09-02T12:14:34.432Z,18.59
2018-09-02T12:17:09.472Z,18.51
2018-09-02T12:19:44.100Z,18.41
2018-09-02T12:22:19.083Z,18.35
2018-09-02T12:24:54.076Z,18.43
2018-09-02T12:27:28.659Z,18.58
2018-09-02T12:30:03.587Z,18.59
2018-09-02T12:32:38.119Z,18.51
2018-09-02T12:35:12.828Z,18.49
2018-09-02T12:37:47.423Z,18.48
2018-09-02T12:40:22.607Z,18.54
2018-09-02T12:42:56.965Z,18.61
2018-09-02T12:45:31.938Z,18.85
2018-09-02T12:48:07.101Z,19.07
2018-09-02T12:50:42.623Z,19.31
2018-09-02T12:53:17.588Z,19.44
2018-09-02T12:55:51.906Z,19.37
2018-09-02T12:58:26.400Z,19.37
2018-09-02T13:01:01.272Z,19.20
2018-09-02T13:03:35.827Z,19.00
2018-09-02T13:06:10.539Z,18.88
2018-09-02T13:08:45.559Z,18.94
2018-09-02T13:11:19.953Z,18.96
2018-09-02T13:13:54.652Z,19.26
2018-09-02T13:16:29.524Z,19.65
2018-09-02T13:19:04.432Z,19.96
2018-09-02T13:21:38.866Z,20.17
2018-09-02T13:24:13.521Z,20.19
2018-09-02T13:26:47.913Z,20.07
2018-09-02T13:29:22.647Z,19.93
2018-09-02T13:31:57.295Z,19.93
2018-09-02T13:34:32.127Z,19.99
2018-09-02T13:37:06.910Z,19.94
2018-09-02T13:39:41.906Z,19.83
2018-09-02T13:42:16.868Z,19.87
2018-09-02T13:44:51.196Z,19.85
2018-09-02T13:47:26.197Z,20.00
2018-09-02T13:50:00.984Z,20.21
2018-09-02T13:52:35.592Z,20.35
2018-09-02T13:55:10.448Z,20.50
2018-09-02T13:57:45.483Z,20.38
2018-09-02T14:00:20.151Z,20.20
2018-09-02T14:02:54.950Z,19.94
2018-09-02T14:05:29.207Z,19.81
2018-09-02T14:08:03.878Z,19.90
2018-09-02T14:10:38.628Z,20.14
2018-09-02T14:13:12.988Z,20.33
2018-09-02T14:15:47.751Z,20.28
2018-09-02T14:18:22.303Z,20.18
2018-09-02T14:20:56.861Z,19.95
2018-09-02T14:23:31.251Z,19.60
2018-09-02T14:26:06.269Z,19.37
2018-09-02T14:28:41.252Z,19.26
2018-09-02T14:31:16.092Z,19.08
2018-09-02T14:33:50.795Z,19.05
2018-09-02T14:36:25.358Z,19.08
2018-09-02T14:39:00.029Z,19.18
2018-09-02T14:41:34.532Z,19.23
2018-09-02T14:44:09.567Z,19.22
2018-09-02T14:46:44.455Z,19.26
2018-09-02T14:49:19.004Z,19.33
2018-09-02T14:51:53.728Z,19.44
2018-09-02T14:54:28.277Z,19.58
2018-09-02T14:57:03.756Z,19.66
2018-09-02T14:59:38.197Z,19.80
2018-09-02T15:02:12.583Z,19.82
2018-09-02T15:04:47.403Z,19.85
2018-09-02T15:07:21.719Z,19.80
2018-09-02T15:09:56.844Z,19.81
2018-09-02T15:12:31.143Z,19.76
2018-09-02T15:15:06.044Z,19.74
2018-09-02T15:17:40.584Z,19.65
2018-09-02T15:20:15.791Z,19.59
2018-09-02T15:22:50.448Z,19.57
2018-09-02T15:25:25.412Z,19.54
2018-09-02T15:27:59.745Z,19.38
2018-09-02T15:30:34.460Z,19.17
2018-09-02T15:33:09.622Z,19.07
2018-09-02T15:35:44.076Z,18.95
2018-09-02T15:38:19.530Z,18.87
2018-09-02T15:40:53.965Z,18.76
2018-09-02T15:43:28.397Z,18.69
2018-09-02T15:46:03.495Z,18.60
2018-09-02T15:48:38.156Z,18.48
2018-09-02T15:51:12.851Z,18.36
2018-09-02T15:53:47.260Z,18.26
2018-09-02T15:56:21.979Z,18.19
2018-09-02T15:58:56.521Z,18.14
2018-09-02T16:01:31.215Z,17.95
2018-09-02T16:04:05.656Z,17.84
2018-09-02T16:06:40.536Z,17.82
2018-09-02T16:09:15.005Z,17.76
2018-09-02T16:11:49.369Z,17.73
2018-09-02T16:14:24.293Z,17.70
2018-09-02T16:16:59.328Z,17.69
2018-09-02T16:19:33.707Z,17.73
2018-09-02T16:22:08.103Z,17.71
2018-09-02T16:24:42.544Z,17.76
2018-09-02T16:27:17.271Z,17.82
2018-09-02T16:29:52.003Z,17.80
2018-09-02T16:32:28.124Z,17.86
2018-09-02T16:35:02.947Z,17.82
2018-09-02T16:37:37.414Z,17.80
2018-09-02T16:40:12.231Z,17.74
2018-09-02T16:42:46.872Z,17.68
2018-09-02T16:45:21.994Z,17.59
2018-09-02T16:47:56.414Z,17.53
2018-09-02T16:50:30.825Z,17.52
2018-09-02T16:53:05.854Z,17.51
2018-09-02T16:55:40.558Z,17.46
2018-09-02T16:58:14.938Z,17.38
2018-09-02T17:00:49.741Z,17.36
2018-09-02T17:03:28.686Z,17.35
2018-09-02T17:06:03.393Z,17.35
2018-09-02T17:08:38.160Z,17.33
2018-09-02T17:11:13.694Z,17.29
2018-09-02T17:13:48.488Z,17.24
2018-09-02T17:16:23.484Z,17.21
2018-09-02T17:19:16.895Z,17.18
2018-09-02T17:21:51.464Z,17.03
2018-09-02T17:24:25.969Z,17.03
2018-09-02T17:27:00.409Z,16.90
2018-09-02T17:29:34.759Z,16.84
2018-09-02T17:32:11.532Z,16.83
2018-09-02T17:34:46.644Z,16.81
2018-09-02T17:37:21.092Z,16.80
2018-09-02T17:39:55.524Z,16.75
2018-09-02T17:42:29.967Z,16.68
2018-09-02T17:45:04.433Z,16.57
2018-09-02T17:47:39.351Z,16.69
2018-09-02T17:50:13.840Z,16.68
2018-09-02T17:52:48.218Z,16.58
2018-09-02T17:55:22.742Z,16.54
2018-09-02T17:57:57.437Z,16.61
2018-09-02T18:00:35.383Z,16.49
2018-09-02T18:03:09.835Z,16.51
2018-09-02T18:05:44.871Z,16.48
2018-09-02T18:08:19.530Z,16.38
2018-09-02T18:10:54.810Z,16.42
2018-09-02T18:13:30.068Z,16.38
2018-09-02T18:16:09.625Z,16.34
2018-09-02T18:18:44.211Z,16.31
2018-09-02T18:21:20.023Z,16.25
2018-09-02T18:23:54.618Z,16.20
2018-09-02T18:26:29.963Z,16.24
2018-09-02T18:29:06.225Z,16.24
2018-09-02T18:31:41.072Z,16.19
2018-09-02T18:34:15.511Z,16.20
2018-09-02T18:36:50.199Z,16.14
2018-09-02T18:39:25.012Z,16.18
2018-09-02T18:42:00.605Z,16.16
2018-09-02T18:44:35.296Z,16.14
2018-09-02T18:47:10.577Z,16.14
2018-09-02T18:49:45.629Z,16.17
2018-09-02T18:52:20.019Z,16.16
2018-09-02T18:54:54.740Z,16.15
2018-09-02T18:57:29.377Z,16.15
2018-09-02T19:00:03.988Z,16.11
2018-09-02T19:02:39.398Z,16.09
2018-09-02T19:05:15.863Z,16.06
2018-09-02T19:07:50.418Z,16.08
2018-09-02T19:10:25.468Z,16.07
2018-09-02T19:13:00.029Z,16.08
2018-09-02T19:15:35.703Z,16.09
2018-09-02T19:18:20.120Z,16.05
2018-09-02T19:20:55.104Z,16.01
2018-09-02T19:23:29.714Z,15.99
2018-09-02T19:26:04.848Z,15.99
2018-09-02T19:28:39.268Z,15.99
2018-09-02T19:31:14.115Z,15.98
2018-09-02T19:33:48.485Z,15.98
2018-09-02T19:36:23.358Z,15.95
2018-09-02T19:38:57.769Z,15.95
2018-09-02T19:41:32.262Z,15.98
2018-09-02T19:44:07.407Z,15.95
2018-09-02T19:46:42.097Z,15.95
2018-09-02T19:49:17.041Z,15.94
2018-09-02T19:51:51.602Z,15.93
2018-09-02T19:54:26.090Z,15.90
2018-09-02T19:57:01.216Z,15.86
2018-09-02T19:59:35.556Z,15.87
2018-09-02T20:02:10.204Z,15.86
2018-09-02T20:04:45.189Z,15.83
2018-09-02T20:07:19.711Z,15.85
2018-09-02T20:09:57.252Z,15.83
2018-09-02T20:12:31.846Z,15.85
2018-09-02T20:15:07.084Z,15.89
2018-09-02T20:17:42.170Z,15.86
2018-09-02T20:20:17.072Z,15.82
2018-09-02T20:22:51.662Z,15.81
2018-09-02T20:25:26.747Z,15.82
2018-09-02T20:28:02.466Z,15.83
2018-09-02T20:30:36.968Z,15.83
2018-09-02T20:33:12.129Z,15.80
2018-09-02T20:35:47.733Z,15.80
2018-09-02T20:38:22.078Z,15.80
2018-09-02T20:40:56.619Z,15.79
2018-09-02T20:43:32.150Z,15.75
2018-09-02T20:46:07.859Z,15.75
2018-09-02T20:48:42.951Z,15.76
2018-09-02T20:51:18.090Z,15.77
2018-09-02T20:53:52.955Z,15.81
2018-09-02T20:56:30.719Z,15.76
2018-09-02T20:59:05.502Z,15.78
2018-09-02T21:01:40.127Z,15.77
2018-09-02T21:04:14.607Z,15.76
2018-09-02T21:06:49.612Z,15.79
2018-09-02T21:09:24.597Z,15.82
2018-09-02T21:11:59.267Z,15.78
2018-09-02T21:17:12.593Z,15.77
2018-09-02T21:19:48.101Z,15.75
2018-09-02T21:22:23.288Z,15.73
2018-09-02T21:24:58.727Z,15.77
2018-09-02T21:27:33.450Z,15.87
2018-09-02T21:30:09.546Z,15.87
2018-09-02T21:32:44.116Z,15.88
2018-09-02T21:35:18.928Z,15.83
2018-09-02T21:37:53.325Z,15.78
2018-09-02T21:40:28.737Z,15.76
2018-09-02T21:43:03.384Z,15.67
2018-09-02T21:45:38.784Z,15.67
2018-09-02T21:48:13.579Z,15.67
2018-09-02T21:50:48.059Z,15.72
2018-09-02T21:53:22.379Z,15.74
2018-09-02T21:55:57.060Z,15.76
2018-09-02T21:58:32.195Z,15.77
2018-09-02T22:01:07.275Z,15.77
2018-09-02T22:03:41.917Z,15.75
2018-09-02T22:06:16.338Z,15.75
2018-09-02T22:08:50.827Z,15.75
2018-09-02T22:11:25.704Z,15.76
2018-09-02T22:14:00.379Z,15.79
2018-09-02T22:16:35.054Z,15.78
2018-09-02T22:19:09.435Z,15.80
2018-09-02T22:21:43.763Z,15.84
2018-09-02T22:24:18.200Z,15.85
2018-09-02T22:26:53.235Z,15.85
2018-09-02T22:29:27.640Z,15.87
2018-09-02T22:32:02.011Z,15.87
2018-09-02T22:34:36.609Z,15.87
2018-09-02T22:37:11.093Z,15.87
2018-09-02T22:39:45.427Z,15.90
2018-09-02T22:42:19.844Z,15.87
2018-09-02T22:44:54.258Z,15.86
2018-09-02T22:47:28.763Z,15.86
2018-09-02T22:50:03.606Z,15.86
2018-09-02T22:52:38.341Z,15.84
2018-09-02T22:55:12.780Z,15.86
2018-09-02T22:57:47.253Z,15.83
2018-09-02T23:00:22.021Z,15.86
2018-09-02T23:02:56.534Z,15.82
2018-09-02T23:05:32.267Z,15.79
2018-09-02T23:08:27.109Z,15.80
2018-09-02T23:11:03.415Z,15.80
2018-09-02T23:13:38.924Z,15.74
2018-09-02T23:16:13.527Z,15.70
2018-09-02T23:18:49.007Z,15.62
2018-09-02T23:21:23.763Z,15.56
2018-09-02T23:24:06.816Z,15.48
2018-09-02T23:26:43.323Z,15.40
2018-09-02T23:29:18.321Z,15.31
2018-09-02T23:31:52.794Z,15.23
2018-09-02T23:34:27.220Z,15.14
2018-09-02T23:37:01.723Z,15.11
2018-09-02T23:39:36.235Z,15.01
2018-09-02T23:42:10.640Z,14.96
2018-09-02T23:44:45.104Z,14.90
2018-09-02T23:47:19.603Z,14.86
2018-09-02T23:49:53.911Z,14.85
2018-09-02T23:52:28.580Z,14.83
2018-09-02T23:55:03.075Z,14.83
2018-09-02T23:57:37.694Z,14.83
